<?xml version="1.0" encoding="UTF-8" standalone="no" ?>
<gpx xmlns="http://www.topografix.com/GPX/1/1" xmlns:xsi="http://www.w3.org/2001/XMLSchema-instance" xsi:schemaLocation="http://www.topografix.com/GPX/1/1 http://www.topografix.com/GPX/1/1/gpx.xsd" version="1.1" creator="VisuGPX - https://www.visugpx.com">
  <metadata>
    <name>MILLAU J1 et 2</name>
  </metadata>
  <trk>
    <name><![CDATA[MILLAU J2 - Millau VTT]]></name>
    <trkseg>
      <trkpt lat="44.12612" lon="3.15282">
        <ele>947.59997558594</ele>
        <time>2020-10-03T16:27:51.000Z</time>
      </trkpt>
      <trkpt lat="44.1261" lon="3.15285">
        <ele>919.79998779297</ele>
        <time>2020-10-03T16:27:52.000Z</time>
      </trkpt>
      <trkpt lat="44.1261" lon="3.15285">
        <ele>905.40002441406</ele>
        <time>2020-10-03T16:27:53.000Z</time>
      </trkpt>
      <trkpt lat="44.12609" lon="3.15286">
        <ele>898</ele>
        <time>2020-10-03T16:27:54.000Z</time>
      </trkpt>
      <trkpt lat="44.12609" lon="3.15287">
        <ele>894.20001220703</ele>
        <time>2020-10-03T16:27:55.000Z</time>
      </trkpt>
      <trkpt lat="44.12609" lon="3.15288">
        <ele>891.79998779297</ele>
        <time>2020-10-03T16:27:56.000Z</time>
      </trkpt>
      <trkpt lat="44.12603" lon="3.15302">
        <ele>890.79998779297</ele>
        <time>2020-10-03T16:27:57.000Z</time>
      </trkpt>
      <trkpt lat="44.12604" lon="3.15301">
        <ele>889.40002441406</ele>
        <time>2020-10-03T16:27:59.000Z</time>
      </trkpt>
      <trkpt lat="44.12605" lon="3.15301">
        <ele>888.20001220703</ele>
        <time>2020-10-03T16:28:02.000Z</time>
      </trkpt>
      <trkpt lat="44.12602" lon="3.15302">
        <ele>887</ele>
        <time>2020-10-03T16:28:13.000Z</time>
      </trkpt>
      <trkpt lat="44.12602" lon="3.15302">
        <ele>886.59997558594</ele>
        <time>2020-10-03T16:28:14.000Z</time>
      </trkpt>
      <trkpt lat="44.126" lon="3.15302">
        <ele>885.79998779297</ele>
        <time>2020-10-03T16:28:17.000Z</time>
      </trkpt>
      <trkpt lat="44.126" lon="3.15302">
        <ele>885</ele>
        <time>2020-10-03T16:28:20.000Z</time>
      </trkpt>
      <trkpt lat="44.126" lon="3.15301">
        <ele>884.79998779297</ele>
        <time>2020-10-03T16:28:21.000Z</time>
      </trkpt>
      <trkpt lat="44.126" lon="3.153">
        <ele>883.59997558594</ele>
        <time>2020-10-03T16:28:25.000Z</time>
      </trkpt>
      <trkpt lat="44.12599" lon="3.15299">
        <ele>882.20001220703</ele>
        <time>2020-10-03T16:28:29.000Z</time>
      </trkpt>
      <trkpt lat="44.12599" lon="3.15299">
        <ele>882</ele>
        <time>2020-10-03T16:28:30.000Z</time>
      </trkpt>
      <trkpt lat="44.126" lon="3.15297">
        <ele>881.40002441406</ele>
        <time>2020-10-03T16:28:35.000Z</time>
      </trkpt>
      <trkpt lat="44.12601" lon="3.15295">
        <ele>881</ele>
        <time>2020-10-03T16:28:42.000Z</time>
      </trkpt>
      <trkpt lat="44.12605" lon="3.15292">
        <ele>881.20001220703</ele>
        <time>2020-10-03T16:28:56.000Z</time>
      </trkpt>
      <trkpt lat="44.12602" lon="3.15292">
        <ele>881.79998779297</ele>
        <time>2020-10-03T16:29:11.000Z</time>
      </trkpt>
      <trkpt lat="44.12599" lon="3.1529">
        <ele>882.20001220703</ele>
        <time>2020-10-03T16:29:13.000Z</time>
      </trkpt>
      <trkpt lat="44.12591" lon="3.15283">
        <ele>883.59997558594</ele>
        <time>2020-10-03T16:29:17.000Z</time>
      </trkpt>
      <trkpt lat="44.12589" lon="3.1528">
        <ele>884.40002441406</ele>
        <time>2020-10-03T16:29:18.000Z</time>
      </trkpt>
      <trkpt lat="44.12584" lon="3.15274">
        <ele>885</ele>
        <time>2020-10-03T16:29:20.000Z</time>
      </trkpt>
      <trkpt lat="44.12576" lon="3.15266">
        <ele>885.20001220703</ele>
        <time>2020-10-03T16:29:23.000Z</time>
      </trkpt>
      <trkpt lat="44.12557" lon="3.15265">
        <ele>885.20001220703</ele>
        <time>2020-10-03T16:29:29.000Z</time>
      </trkpt>
      <trkpt lat="44.12528" lon="3.15261">
        <ele>885.59997558594</ele>
        <time>2020-10-03T16:29:37.000Z</time>
      </trkpt>
      <trkpt lat="44.12499" lon="3.15253">
        <ele>885.59997558594</ele>
        <time>2020-10-03T16:29:46.000Z</time>
      </trkpt>
      <trkpt lat="44.12477" lon="3.15246">
        <ele>885.59997558594</ele>
        <time>2020-10-03T16:29:53.000Z</time>
      </trkpt>
      <trkpt lat="44.12461" lon="3.15237">
        <ele>885</ele>
        <time>2020-10-03T16:29:59.000Z</time>
      </trkpt>
      <trkpt lat="44.12453" lon="3.15233">
        <ele>884.40002441406</ele>
        <time>2020-10-03T16:30:02.000Z</time>
      </trkpt>
      <trkpt lat="44.1244" lon="3.15225">
        <ele>883.59997558594</ele>
        <time>2020-10-03T16:30:06.000Z</time>
      </trkpt>
      <trkpt lat="44.12426" lon="3.15219">
        <ele>882.40002441406</ele>
        <time>2020-10-03T16:30:10.000Z</time>
      </trkpt>
      <trkpt lat="44.12424" lon="3.15218">
        <ele>882.20001220703</ele>
        <time>2020-10-03T16:30:11.000Z</time>
      </trkpt>
      <trkpt lat="44.12409" lon="3.1521">
        <ele>881.59997558594</ele>
        <time>2020-10-03T16:30:15.000Z</time>
      </trkpt>
      <trkpt lat="44.12402" lon="3.15206">
        <ele>881</ele>
        <time>2020-10-03T16:30:17.000Z</time>
      </trkpt>
      <trkpt lat="44.12393" lon="3.152">
        <ele>880.59997558594</ele>
        <time>2020-10-03T16:30:20.000Z</time>
      </trkpt>
      <trkpt lat="44.12376" lon="3.15191">
        <ele>880.20001220703</ele>
        <time>2020-10-03T16:30:24.000Z</time>
      </trkpt>
      <trkpt lat="44.12352" lon="3.15183">
        <ele>880.20001220703</ele>
        <time>2020-10-03T16:30:29.000Z</time>
      </trkpt>
      <trkpt lat="44.12332" lon="3.15176">
        <ele>880.59997558594</ele>
        <time>2020-10-03T16:30:35.000Z</time>
      </trkpt>
      <trkpt lat="44.12319" lon="3.15169">
        <ele>881</ele>
        <time>2020-10-03T16:30:40.000Z</time>
      </trkpt>
      <trkpt lat="44.12316" lon="3.1516">
        <ele>881.20001220703</ele>
        <time>2020-10-03T16:30:43.000Z</time>
      </trkpt>
      <trkpt lat="44.12317" lon="3.15157">
        <ele>881.20001220703</ele>
        <time>2020-10-03T16:30:44.000Z</time>
      </trkpt>
      <trkpt lat="44.12322" lon="3.15139">
        <ele>881.79998779297</ele>
        <time>2020-10-03T16:30:49.000Z</time>
      </trkpt>
      <trkpt lat="44.12325" lon="3.1512">
        <ele>882</ele>
        <time>2020-10-03T16:30:54.000Z</time>
      </trkpt>
      <trkpt lat="44.12326" lon="3.15113">
        <ele>882</ele>
        <time>2020-10-03T16:30:56.000Z</time>
      </trkpt>
      <trkpt lat="44.1233" lon="3.15078">
        <ele>882.40002441406</ele>
        <time>2020-10-03T16:31:04.000Z</time>
      </trkpt>
      <trkpt lat="44.12334" lon="3.15049">
        <ele>882.79998779297</ele>
        <time>2020-10-03T16:31:11.000Z</time>
      </trkpt>
      <trkpt lat="44.12333" lon="3.15021">
        <ele>882.79998779297</ele>
        <time>2020-10-03T16:31:19.000Z</time>
      </trkpt>
      <trkpt lat="44.12333" lon="3.15005">
        <ele>883</ele>
        <time>2020-10-03T16:31:24.000Z</time>
      </trkpt>
      <trkpt lat="44.12336" lon="3.14978">
        <ele>883.40002441406</ele>
        <time>2020-10-03T16:31:32.000Z</time>
      </trkpt>
      <trkpt lat="44.12333" lon="3.14953">
        <ele>883.20001220703</ele>
        <time>2020-10-03T16:31:39.000Z</time>
      </trkpt>
      <trkpt lat="44.1234" lon="3.14928">
        <ele>883.40002441406</ele>
        <time>2020-10-03T16:31:45.000Z</time>
      </trkpt>
      <trkpt lat="44.12338" lon="3.149">
        <ele>883.40002441406</ele>
        <time>2020-10-03T16:31:52.000Z</time>
      </trkpt>
      <trkpt lat="44.1233" lon="3.14881">
        <ele>883.79998779297</ele>
        <time>2020-10-03T16:31:57.000Z</time>
      </trkpt>
      <trkpt lat="44.12332" lon="3.1487">
        <ele>884.20001220703</ele>
        <time>2020-10-03T16:32:00.000Z</time>
      </trkpt>
      <trkpt lat="44.12325" lon="3.14837">
        <ele>884.59997558594</ele>
        <time>2020-10-03T16:32:08.000Z</time>
      </trkpt>
      <trkpt lat="44.1232" lon="3.14812">
        <ele>884.59997558594</ele>
        <time>2020-10-03T16:32:14.000Z</time>
      </trkpt>
      <trkpt lat="44.12314" lon="3.14787">
        <ele>884.79998779297</ele>
        <time>2020-10-03T16:32:20.000Z</time>
      </trkpt>
      <trkpt lat="44.12287" lon="3.14764">
        <ele>884.79998779297</ele>
        <time>2020-10-03T16:32:26.000Z</time>
      </trkpt>
      <trkpt lat="44.12283" lon="3.14761">
        <ele>884.79998779297</ele>
        <time>2020-10-03T16:32:27.000Z</time>
      </trkpt>
      <trkpt lat="44.12254" lon="3.14743">
        <ele>885</ele>
        <time>2020-10-03T16:32:33.000Z</time>
      </trkpt>
      <trkpt lat="44.12243" lon="3.14734">
        <ele>885</ele>
        <time>2020-10-03T16:32:38.000Z</time>
      </trkpt>
      <trkpt lat="44.1224" lon="3.14731">
        <ele>885.20001220703</ele>
        <time>2020-10-03T16:32:44.000Z</time>
      </trkpt>
      <trkpt lat="44.12236" lon="3.14731">
        <ele>885</ele>
        <time>2020-10-03T16:32:56.000Z</time>
      </trkpt>
      <trkpt lat="44.12237" lon="3.1473">
        <ele>884.79998779297</ele>
        <time>2020-10-03T16:33:09.000Z</time>
      </trkpt>
      <trkpt lat="44.12236" lon="3.14731">
        <ele>884.59997558594</ele>
        <time>2020-10-03T16:33:22.000Z</time>
      </trkpt>
      <trkpt lat="44.12234" lon="3.14732">
        <ele>884.40002441406</ele>
        <time>2020-10-03T16:33:36.000Z</time>
      </trkpt>
      <trkpt lat="44.12231" lon="3.14733">
        <ele>884</ele>
        <time>2020-10-03T16:33:42.000Z</time>
      </trkpt>
      <trkpt lat="44.12232" lon="3.14731">
        <ele>883.79998779297</ele>
        <time>2020-10-03T16:33:50.000Z</time>
      </trkpt>
      <trkpt lat="44.12234" lon="3.1473">
        <ele>883.40002441406</ele>
        <time>2020-10-03T16:34:07.000Z</time>
      </trkpt>
      <trkpt lat="44.12234" lon="3.14729">
        <ele>883.40002441406</ele>
        <time>2020-10-03T16:34:17.000Z</time>
      </trkpt>
      <trkpt lat="44.12234" lon="3.14729">
        <ele>883.40002441406</ele>
        <time>2020-10-03T16:34:20.000Z</time>
      </trkpt>
      <trkpt lat="44.12234" lon="3.14729">
        <ele>882.59997558594</ele>
        <time>2020-10-03T16:34:33.000Z</time>
      </trkpt>
      <trkpt lat="44.12233" lon="3.14729">
        <ele>882.40002441406</ele>
        <time>2020-10-03T16:34:40.000Z</time>
      </trkpt>
      <trkpt lat="44.12232" lon="3.14728">
        <ele>882</ele>
        <time>2020-10-03T16:34:49.000Z</time>
      </trkpt>
      <trkpt lat="44.12232" lon="3.14728">
        <ele>881.40002441406</ele>
        <time>2020-10-03T16:35:00.000Z</time>
      </trkpt>
      <trkpt lat="44.12231" lon="3.14728">
        <ele>881.59997558594</ele>
        <time>2020-10-03T16:35:04.000Z</time>
      </trkpt>
      <trkpt lat="44.12232" lon="3.14729">
        <ele>881</ele>
        <time>2020-10-03T16:35:22.000Z</time>
      </trkpt>
      <trkpt lat="44.12232" lon="3.14729">
        <ele>880.59997558594</ele>
        <time>2020-10-03T16:35:25.000Z</time>
      </trkpt>
      <trkpt lat="44.12232" lon="3.1473">
        <ele>880.20001220703</ele>
        <time>2020-10-03T16:35:38.000Z</time>
      </trkpt>
      <trkpt lat="44.12234" lon="3.14726">
        <ele>880</ele>
        <time>2020-10-03T16:35:46.000Z</time>
      </trkpt>
      <trkpt lat="44.12234" lon="3.14722">
        <ele>879.79998779297</ele>
        <time>2020-10-03T16:35:48.000Z</time>
      </trkpt>
      <trkpt lat="44.12239" lon="3.14706">
        <ele>879.59997558594</ele>
        <time>2020-10-03T16:35:53.000Z</time>
      </trkpt>
      <trkpt lat="44.12238" lon="3.14702">
        <ele>879.59997558594</ele>
        <time>2020-10-03T16:35:54.000Z</time>
      </trkpt>
      <trkpt lat="44.12238" lon="3.1469">
        <ele>879.40002441406</ele>
        <time>2020-10-03T16:35:57.000Z</time>
      </trkpt>
      <trkpt lat="44.12239" lon="3.14689">
        <ele>879.40002441406</ele>
        <time>2020-10-03T16:35:58.000Z</time>
      </trkpt>
      <trkpt lat="44.12247" lon="3.1469">
        <ele>879.40002441406</ele>
        <time>2020-10-03T16:36:00.000Z</time>
      </trkpt>
      <trkpt lat="44.12256" lon="3.14697">
        <ele>879.40002441406</ele>
        <time>2020-10-03T16:36:03.000Z</time>
      </trkpt>
      <trkpt lat="44.12271" lon="3.14695">
        <ele>879.20001220703</ele>
        <time>2020-10-03T16:36:07.000Z</time>
      </trkpt>
      <trkpt lat="44.12275" lon="3.14695">
        <ele>879.20001220703</ele>
        <time>2020-10-03T16:36:08.000Z</time>
      </trkpt>
      <trkpt lat="44.12285" lon="3.14693">
        <ele>879</ele>
        <time>2020-10-03T16:36:11.000Z</time>
      </trkpt>
      <trkpt lat="44.12299" lon="3.14695">
        <ele>879</ele>
        <time>2020-10-03T16:36:15.000Z</time>
      </trkpt>
      <trkpt lat="44.12306" lon="3.14697">
        <ele>878.79998779297</ele>
        <time>2020-10-03T16:36:19.000Z</time>
      </trkpt>
      <trkpt lat="44.12323" lon="3.14686">
        <ele>878.59997558594</ele>
        <time>2020-10-03T16:36:23.000Z</time>
      </trkpt>
      <trkpt lat="44.12328" lon="3.14677">
        <ele>878.40002441406</ele>
        <time>2020-10-03T16:36:25.000Z</time>
      </trkpt>
      <trkpt lat="44.12334" lon="3.1467">
        <ele>878.20001220703</ele>
        <time>2020-10-03T16:36:27.000Z</time>
      </trkpt>
      <trkpt lat="44.12336" lon="3.14667">
        <ele>877.79998779297</ele>
        <time>2020-10-03T16:36:28.000Z</time>
      </trkpt>
      <trkpt lat="44.12349" lon="3.14658">
        <ele>877.40002441406</ele>
        <time>2020-10-03T16:36:32.000Z</time>
      </trkpt>
      <trkpt lat="44.12359" lon="3.14646">
        <ele>877.20001220703</ele>
        <time>2020-10-03T16:36:37.000Z</time>
      </trkpt>
      <trkpt lat="44.12357" lon="3.14646">
        <ele>877.40002441406</ele>
        <time>2020-10-03T16:36:43.000Z</time>
      </trkpt>
      <trkpt lat="44.12357" lon="3.14648">
        <ele>877.20001220703</ele>
        <time>2020-10-03T16:36:47.000Z</time>
      </trkpt>
      <trkpt lat="44.12357" lon="3.14649">
        <ele>877</ele>
        <time>2020-10-03T16:36:50.000Z</time>
      </trkpt>
      <trkpt lat="44.12355" lon="3.14646">
        <ele>876.59997558594</ele>
        <time>2020-10-03T16:36:57.000Z</time>
      </trkpt>
      <trkpt lat="44.12356" lon="3.14644">
        <ele>876.40002441406</ele>
        <time>2020-10-03T16:37:00.000Z</time>
      </trkpt>
      <trkpt lat="44.1236" lon="3.14642">
        <ele>875.59997558594</ele>
        <time>2020-10-03T16:37:03.000Z</time>
      </trkpt>
      <trkpt lat="44.12361" lon="3.14641">
        <ele>875.40002441406</ele>
        <time>2020-10-03T16:37:04.000Z</time>
      </trkpt>
      <trkpt lat="44.12361" lon="3.1464">
        <ele>874.40002441406</ele>
        <time>2020-10-03T16:37:08.000Z</time>
      </trkpt>
      <trkpt lat="44.12361" lon="3.1464">
        <ele>873.79998779297</ele>
        <time>2020-10-03T16:37:10.000Z</time>
      </trkpt>
      <trkpt lat="44.12361" lon="3.1464">
        <ele>873.20001220703</ele>
        <time>2020-10-03T16:37:13.000Z</time>
      </trkpt>
      <trkpt lat="44.12361" lon="3.1464">
        <ele>870</ele>
        <time>2020-10-03T16:37:17.000Z</time>
      </trkpt>
      <trkpt lat="44.12361" lon="3.1464">
        <ele>868.20001220703</ele>
        <time>2020-10-03T16:37:18.000Z</time>
      </trkpt>
      <trkpt lat="44.12362" lon="3.1464">
        <ele>867</ele>
        <time>2020-10-03T16:37:19.000Z</time>
      </trkpt>
      <trkpt lat="44.12361" lon="3.14641">
        <ele>866</ele>
        <time>2020-10-03T16:37:25.000Z</time>
      </trkpt>
      <trkpt lat="44.12361" lon="3.1464">
        <ele>865.79998779297</ele>
        <time>2020-10-03T16:37:54.000Z</time>
      </trkpt>
      <trkpt lat="44.12359" lon="3.1463">
        <ele>866</ele>
        <time>2020-10-03T16:38:01.000Z</time>
      </trkpt>
      <trkpt lat="44.12357" lon="3.14626">
        <ele>866</ele>
        <time>2020-10-03T16:38:03.000Z</time>
      </trkpt>
      <trkpt lat="44.12351" lon="3.14609">
        <ele>866.59997558594</ele>
        <time>2020-10-03T16:38:08.000Z</time>
      </trkpt>
      <trkpt lat="44.12342" lon="3.1459">
        <ele>866.79998779297</ele>
        <time>2020-10-03T16:38:12.000Z</time>
      </trkpt>
      <trkpt lat="44.12339" lon="3.14584">
        <ele>866.79998779297</ele>
        <time>2020-10-03T16:38:13.000Z</time>
      </trkpt>
      <trkpt lat="44.12325" lon="3.14566">
        <ele>867.59997558594</ele>
        <time>2020-10-03T16:38:17.000Z</time>
      </trkpt>
      <trkpt lat="44.12323" lon="3.14552">
        <ele>867.79998779297</ele>
        <time>2020-10-03T16:38:21.000Z</time>
      </trkpt>
      <trkpt lat="44.12316" lon="3.14544">
        <ele>867.79998779297</ele>
        <time>2020-10-03T16:38:25.000Z</time>
      </trkpt>
      <trkpt lat="44.12312" lon="3.14541">
        <ele>868</ele>
        <time>2020-10-03T16:38:29.000Z</time>
      </trkpt>
      <trkpt lat="44.12311" lon="3.14542">
        <ele>868</ele>
        <time>2020-10-03T16:38:34.000Z</time>
      </trkpt>
      <trkpt lat="44.12311" lon="3.1454">
        <ele>868</ele>
        <time>2020-10-03T16:38:39.000Z</time>
      </trkpt>
      <trkpt lat="44.12311" lon="3.14537">
        <ele>868.20001220703</ele>
        <time>2020-10-03T16:38:45.000Z</time>
      </trkpt>
      <trkpt lat="44.12309" lon="3.14534">
        <ele>868.20001220703</ele>
        <time>2020-10-03T16:38:46.000Z</time>
      </trkpt>
      <trkpt lat="44.12304" lon="3.14518">
        <ele>868</ele>
        <time>2020-10-03T16:38:50.000Z</time>
      </trkpt>
      <trkpt lat="44.12304" lon="3.14496">
        <ele>868.20001220703</ele>
        <time>2020-10-03T16:38:55.000Z</time>
      </trkpt>
      <trkpt lat="44.12307" lon="3.14466">
        <ele>868</ele>
        <time>2020-10-03T16:39:01.000Z</time>
      </trkpt>
      <trkpt lat="44.12307" lon="3.14441">
        <ele>868</ele>
        <time>2020-10-03T16:39:06.000Z</time>
      </trkpt>
      <trkpt lat="44.12301" lon="3.14432">
        <ele>868</ele>
        <time>2020-10-03T16:39:08.000Z</time>
      </trkpt>
      <trkpt lat="44.12294" lon="3.14421">
        <ele>868.20001220703</ele>
        <time>2020-10-03T16:39:10.000Z</time>
      </trkpt>
      <trkpt lat="44.12291" lon="3.14394">
        <ele>868</ele>
        <time>2020-10-03T16:39:14.000Z</time>
      </trkpt>
      <trkpt lat="44.12286" lon="3.14381">
        <ele>868</ele>
        <time>2020-10-03T16:39:17.000Z</time>
      </trkpt>
      <trkpt lat="44.12281" lon="3.14374">
        <ele>867.79998779297</ele>
        <time>2020-10-03T16:39:21.000Z</time>
      </trkpt>
      <trkpt lat="44.12278" lon="3.14371">
        <ele>867.79998779297</ele>
        <time>2020-10-03T16:39:22.000Z</time>
      </trkpt>
      <trkpt lat="44.12269" lon="3.14369">
        <ele>856.79998779297</ele>
        <time>2020-10-03T16:39:25.000Z</time>
      </trkpt>
      <trkpt lat="44.12269" lon="3.14369">
        <ele>837.79998779297</ele>
        <time>2020-10-03T16:39:26.000Z</time>
      </trkpt>
      <trkpt lat="44.1227" lon="3.14369">
        <ele>824</ele>
        <time>2020-10-03T16:39:27.000Z</time>
      </trkpt>
      <trkpt lat="44.1227" lon="3.14369">
        <ele>816.20001220703</ele>
        <time>2020-10-03T16:39:28.000Z</time>
      </trkpt>
      <trkpt lat="44.1227" lon="3.14369">
        <ele>812.20001220703</ele>
        <time>2020-10-03T16:39:29.000Z</time>
      </trkpt>
      <trkpt lat="44.1227" lon="3.14368">
        <ele>810.20001220703</ele>
        <time>2020-10-03T16:39:30.000Z</time>
      </trkpt>
      <trkpt lat="44.1227" lon="3.14369">
        <ele>809.20001220703</ele>
        <time>2020-10-03T16:39:31.000Z</time>
      </trkpt>
      <trkpt lat="44.12269" lon="3.14369">
        <ele>808</ele>
        <time>2020-10-03T16:39:34.000Z</time>
      </trkpt>
      <trkpt lat="44.12268" lon="3.14368">
        <ele>807.79998779297</ele>
        <time>2020-10-03T16:39:36.000Z</time>
      </trkpt>
      <trkpt lat="44.12266" lon="3.14357">
        <ele>807.59997558594</ele>
        <time>2020-10-03T16:39:43.000Z</time>
      </trkpt>
      <trkpt lat="44.12261" lon="3.14349">
        <ele>807.59997558594</ele>
        <time>2020-10-03T16:39:45.000Z</time>
      </trkpt>
      <trkpt lat="44.12256" lon="3.14336">
        <ele>807</ele>
        <time>2020-10-03T16:39:49.000Z</time>
      </trkpt>
      <trkpt lat="44.12256" lon="3.14334">
        <ele>806.79998779297</ele>
        <time>2020-10-03T16:39:50.000Z</time>
      </trkpt>
      <trkpt lat="44.12255" lon="3.14329">
        <ele>805.59997558594</ele>
        <time>2020-10-03T16:39:53.000Z</time>
      </trkpt>
      <trkpt lat="44.12255" lon="3.14327">
        <ele>804.59997558594</ele>
        <time>2020-10-03T16:39:54.000Z</time>
      </trkpt>
      <trkpt lat="44.12254" lon="3.14325">
        <ele>804</ele>
        <time>2020-10-03T16:39:55.000Z</time>
      </trkpt>
      <trkpt lat="44.12248" lon="3.1432">
        <ele>803.20001220703</ele>
        <time>2020-10-03T16:39:56.000Z</time>
      </trkpt>
      <trkpt lat="44.12247" lon="3.14321">
        <ele>802.40002441406</ele>
        <time>2020-10-03T16:39:57.000Z</time>
      </trkpt>
      <trkpt lat="44.12246" lon="3.14322">
        <ele>801.79998779297</ele>
        <time>2020-10-03T16:39:58.000Z</time>
      </trkpt>
      <trkpt lat="44.12245" lon="3.14324">
        <ele>801.20001220703</ele>
        <time>2020-10-03T16:39:59.000Z</time>
      </trkpt>
      <trkpt lat="44.12243" lon="3.14327">
        <ele>800.20001220703</ele>
        <time>2020-10-03T16:40:01.000Z</time>
      </trkpt>
      <trkpt lat="44.1224" lon="3.1433">
        <ele>798.59997558594</ele>
        <time>2020-10-03T16:40:03.000Z</time>
      </trkpt>
      <trkpt lat="44.12237" lon="3.1433">
        <ele>797.40002441406</ele>
        <time>2020-10-03T16:40:05.000Z</time>
      </trkpt>
      <trkpt lat="44.12233" lon="3.14328">
        <ele>796.40002441406</ele>
        <time>2020-10-03T16:40:07.000Z</time>
      </trkpt>
      <trkpt lat="44.12232" lon="3.14323">
        <ele>795.79998779297</ele>
        <time>2020-10-03T16:40:09.000Z</time>
      </trkpt>
      <trkpt lat="44.12234" lon="3.14317">
        <ele>795</ele>
        <time>2020-10-03T16:40:11.000Z</time>
      </trkpt>
      <trkpt lat="44.12233" lon="3.14314">
        <ele>794.59997558594</ele>
        <time>2020-10-03T16:40:12.000Z</time>
      </trkpt>
      <trkpt lat="44.12232" lon="3.14312">
        <ele>793.79998779297</ele>
        <time>2020-10-03T16:40:13.000Z</time>
      </trkpt>
      <trkpt lat="44.12229" lon="3.14309">
        <ele>792.79998779297</ele>
        <time>2020-10-03T16:40:15.000Z</time>
      </trkpt>
      <trkpt lat="44.12227" lon="3.14309">
        <ele>790.79998779297</ele>
        <time>2020-10-03T16:40:16.000Z</time>
      </trkpt>
      <trkpt lat="44.12222" lon="3.14312">
        <ele>788.79998779297</ele>
        <time>2020-10-03T16:40:18.000Z</time>
      </trkpt>
      <trkpt lat="44.12217" lon="3.14312">
        <ele>786.59997558594</ele>
        <time>2020-10-03T16:40:20.000Z</time>
      </trkpt>
      <trkpt lat="44.12214" lon="3.14311">
        <ele>785.59997558594</ele>
        <time>2020-10-03T16:40:21.000Z</time>
      </trkpt>
      <trkpt lat="44.12209" lon="3.14311">
        <ele>784</ele>
        <time>2020-10-03T16:40:23.000Z</time>
      </trkpt>
      <trkpt lat="44.12205" lon="3.14311">
        <ele>782.20001220703</ele>
        <time>2020-10-03T16:40:25.000Z</time>
      </trkpt>
      <trkpt lat="44.122" lon="3.14311">
        <ele>781</ele>
        <time>2020-10-03T16:40:27.000Z</time>
      </trkpt>
      <trkpt lat="44.12197" lon="3.14308">
        <ele>778.79998779297</ele>
        <time>2020-10-03T16:40:29.000Z</time>
      </trkpt>
      <trkpt lat="44.12194" lon="3.14307">
        <ele>777.79998779297</ele>
        <time>2020-10-03T16:40:30.000Z</time>
      </trkpt>
      <trkpt lat="44.12189" lon="3.14307">
        <ele>776.79998779297</ele>
        <time>2020-10-03T16:40:31.000Z</time>
      </trkpt>
      <trkpt lat="44.12181" lon="3.14308">
        <ele>775</ele>
        <time>2020-10-03T16:40:33.000Z</time>
      </trkpt>
      <trkpt lat="44.12178" lon="3.14308">
        <ele>774.20001220703</ele>
        <time>2020-10-03T16:40:34.000Z</time>
      </trkpt>
      <trkpt lat="44.12176" lon="3.14309">
        <ele>773.59997558594</ele>
        <time>2020-10-03T16:40:35.000Z</time>
      </trkpt>
      <trkpt lat="44.12174" lon="3.1431">
        <ele>772.79998779297</ele>
        <time>2020-10-03T16:40:36.000Z</time>
      </trkpt>
      <trkpt lat="44.1217" lon="3.14312">
        <ele>771.79998779297</ele>
        <time>2020-10-03T16:40:37.000Z</time>
      </trkpt>
      <trkpt lat="44.12166" lon="3.14313">
        <ele>770.79998779297</ele>
        <time>2020-10-03T16:40:38.000Z</time>
      </trkpt>
      <trkpt lat="44.12162" lon="3.14313">
        <ele>769.59997558594</ele>
        <time>2020-10-03T16:40:39.000Z</time>
      </trkpt>
      <trkpt lat="44.12158" lon="3.14311">
        <ele>768.79998779297</ele>
        <time>2020-10-03T16:40:40.000Z</time>
      </trkpt>
      <trkpt lat="44.12155" lon="3.14309">
        <ele>768</ele>
        <time>2020-10-03T16:40:41.000Z</time>
      </trkpt>
      <trkpt lat="44.12149" lon="3.14305">
        <ele>766.59997558594</ele>
        <time>2020-10-03T16:40:43.000Z</time>
      </trkpt>
      <trkpt lat="44.12143" lon="3.14302">
        <ele>766</ele>
        <time>2020-10-03T16:40:45.000Z</time>
      </trkpt>
      <trkpt lat="44.1214" lon="3.14301">
        <ele>765</ele>
        <time>2020-10-03T16:40:46.000Z</time>
      </trkpt>
      <trkpt lat="44.12133" lon="3.143">
        <ele>763.79998779297</ele>
        <time>2020-10-03T16:40:48.000Z</time>
      </trkpt>
      <trkpt lat="44.12127" lon="3.14298">
        <ele>763.20001220703</ele>
        <time>2020-10-03T16:40:50.000Z</time>
      </trkpt>
      <trkpt lat="44.12116" lon="3.14298">
        <ele>763</ele>
        <time>2020-10-03T16:40:55.000Z</time>
      </trkpt>
      <trkpt lat="44.12115" lon="3.143">
        <ele>763</ele>
        <time>2020-10-03T16:40:59.000Z</time>
      </trkpt>
      <trkpt lat="44.12115" lon="3.14302">
        <ele>763.20001220703</ele>
        <time>2020-10-03T16:41:00.000Z</time>
      </trkpt>
      <trkpt lat="44.12112" lon="3.1431">
        <ele>763.20001220703</ele>
        <time>2020-10-03T16:41:03.000Z</time>
      </trkpt>
      <trkpt lat="44.1211" lon="3.14314">
        <ele>763.20001220703</ele>
        <time>2020-10-03T16:41:04.000Z</time>
      </trkpt>
      <trkpt lat="44.12097" lon="3.14332">
        <ele>763.20001220703</ele>
        <time>2020-10-03T16:41:09.000Z</time>
      </trkpt>
      <trkpt lat="44.12093" lon="3.14337">
        <ele>762.79998779297</ele>
        <time>2020-10-03T16:41:11.000Z</time>
      </trkpt>
      <trkpt lat="44.12085" lon="3.14343">
        <ele>761.79998779297</ele>
        <time>2020-10-03T16:41:14.000Z</time>
      </trkpt>
      <trkpt lat="44.12084" lon="3.14345">
        <ele>761.40002441406</ele>
        <time>2020-10-03T16:41:15.000Z</time>
      </trkpt>
      <trkpt lat="44.12083" lon="3.14346">
        <ele>760.59997558594</ele>
        <time>2020-10-03T16:41:16.000Z</time>
      </trkpt>
      <trkpt lat="44.12078" lon="3.14349">
        <ele>759.20001220703</ele>
        <time>2020-10-03T16:41:18.000Z</time>
      </trkpt>
      <trkpt lat="44.12072" lon="3.14353">
        <ele>757.20001220703</ele>
        <time>2020-10-03T16:41:20.000Z</time>
      </trkpt>
      <trkpt lat="44.12063" lon="3.14353">
        <ele>755.59997558594</ele>
        <time>2020-10-03T16:41:23.000Z</time>
      </trkpt>
      <trkpt lat="44.12058" lon="3.14353">
        <ele>754</ele>
        <time>2020-10-03T16:41:25.000Z</time>
      </trkpt>
      <trkpt lat="44.12055" lon="3.14353">
        <ele>753.20001220703</ele>
        <time>2020-10-03T16:41:26.000Z</time>
      </trkpt>
      <trkpt lat="44.12053" lon="3.14354">
        <ele>752.59997558594</ele>
        <time>2020-10-03T16:41:27.000Z</time>
      </trkpt>
      <trkpt lat="44.12049" lon="3.14354">
        <ele>751.20001220703</ele>
        <time>2020-10-03T16:41:30.000Z</time>
      </trkpt>
      <trkpt lat="44.12044" lon="3.14354">
        <ele>750</ele>
        <time>2020-10-03T16:41:34.000Z</time>
      </trkpt>
      <trkpt lat="44.12037" lon="3.14356">
        <ele>748.79998779297</ele>
        <time>2020-10-03T16:41:39.000Z</time>
      </trkpt>
      <trkpt lat="44.12029" lon="3.14357">
        <ele>747.79998779297</ele>
        <time>2020-10-03T16:41:43.000Z</time>
      </trkpt>
      <trkpt lat="44.12028" lon="3.14357">
        <ele>747.59997558594</ele>
        <time>2020-10-03T16:41:44.000Z</time>
      </trkpt>
      <trkpt lat="44.12021" lon="3.14359">
        <ele>747.40002441406</ele>
        <time>2020-10-03T16:41:52.000Z</time>
      </trkpt>
      <trkpt lat="44.12012" lon="3.14359">
        <ele>748</ele>
        <time>2020-10-03T16:42:03.000Z</time>
      </trkpt>
      <trkpt lat="44.12006" lon="3.1436">
        <ele>748.40002441406</ele>
        <time>2020-10-03T16:42:10.000Z</time>
      </trkpt>
      <trkpt lat="44.12005" lon="3.14359">
        <ele>749</ele>
        <time>2020-10-03T16:42:13.000Z</time>
      </trkpt>
      <trkpt lat="44.12004" lon="3.14358">
        <ele>749.59997558594</ele>
        <time>2020-10-03T16:42:14.000Z</time>
      </trkpt>
      <trkpt lat="44.12002" lon="3.14358">
        <ele>749.59997558594</ele>
        <time>2020-10-03T16:42:15.000Z</time>
      </trkpt>
      <trkpt lat="44.11993" lon="3.14355">
        <ele>749.79998779297</ele>
        <time>2020-10-03T16:42:21.000Z</time>
      </trkpt>
      <trkpt lat="44.1198" lon="3.14357">
        <ele>750.20001220703</ele>
        <time>2020-10-03T16:42:26.000Z</time>
      </trkpt>
      <trkpt lat="44.11967" lon="3.14358">
        <ele>750.40002441406</ele>
        <time>2020-10-03T16:42:31.000Z</time>
      </trkpt>
      <trkpt lat="44.11964" lon="3.14359">
        <ele>750.40002441406</ele>
        <time>2020-10-03T16:42:32.000Z</time>
      </trkpt>
      <trkpt lat="44.11949" lon="3.14362">
        <ele>750.40002441406</ele>
        <time>2020-10-03T16:42:38.000Z</time>
      </trkpt>
      <trkpt lat="44.11938" lon="3.14363">
        <ele>751.79998779297</ele>
        <time>2020-10-03T16:42:43.000Z</time>
      </trkpt>
      <trkpt lat="44.11935" lon="3.14363">
        <ele>752.20001220703</ele>
        <time>2020-10-03T16:42:44.000Z</time>
      </trkpt>
      <trkpt lat="44.11924" lon="3.14364">
        <ele>752.59997558594</ele>
        <time>2020-10-03T16:42:49.000Z</time>
      </trkpt>
      <trkpt lat="44.11918" lon="3.14365">
        <ele>752.59997558594</ele>
        <time>2020-10-03T16:42:53.000Z</time>
      </trkpt>
      <trkpt lat="44.11915" lon="3.14368">
        <ele>752.59997558594</ele>
        <time>2020-10-03T16:42:55.000Z</time>
      </trkpt>
      <trkpt lat="44.11905" lon="3.1437">
        <ele>752.59997558594</ele>
        <time>2020-10-03T16:43:00.000Z</time>
      </trkpt>
      <trkpt lat="44.11898" lon="3.14368">
        <ele>752.40002441406</ele>
        <time>2020-10-03T16:43:06.000Z</time>
      </trkpt>
      <trkpt lat="44.11893" lon="3.1436">
        <ele>751.40002441406</ele>
        <time>2020-10-03T16:43:10.000Z</time>
      </trkpt>
      <trkpt lat="44.11886" lon="3.14354">
        <ele>750.79998779297</ele>
        <time>2020-10-03T16:43:14.000Z</time>
      </trkpt>
      <trkpt lat="44.11883" lon="3.14354">
        <ele>750.40002441406</ele>
        <time>2020-10-03T16:43:15.000Z</time>
      </trkpt>
      <trkpt lat="44.1187" lon="3.14354">
        <ele>750</ele>
        <time>2020-10-03T16:43:21.000Z</time>
      </trkpt>
      <trkpt lat="44.11857" lon="3.14356">
        <ele>749.79998779297</ele>
        <time>2020-10-03T16:43:26.000Z</time>
      </trkpt>
      <trkpt lat="44.11856" lon="3.14357">
        <ele>749.59997558594</ele>
        <time>2020-10-03T16:43:29.000Z</time>
      </trkpt>
      <trkpt lat="44.11854" lon="3.14359">
        <ele>748.40002441406</ele>
        <time>2020-10-03T16:43:33.000Z</time>
      </trkpt>
      <trkpt lat="44.11848" lon="3.14363">
        <ele>747.79998779297</ele>
        <time>2020-10-03T16:43:42.000Z</time>
      </trkpt>
      <trkpt lat="44.1184" lon="3.14376">
        <ele>747.59997558594</ele>
        <time>2020-10-03T16:43:47.000Z</time>
      </trkpt>
      <trkpt lat="44.11839" lon="3.14378">
        <ele>747.40002441406</ele>
        <time>2020-10-03T16:43:48.000Z</time>
      </trkpt>
      <trkpt lat="44.11836" lon="3.14381">
        <ele>746.20001220703</ele>
        <time>2020-10-03T16:43:50.000Z</time>
      </trkpt>
      <trkpt lat="44.11832" lon="3.14384">
        <ele>745.59997558594</ele>
        <time>2020-10-03T16:43:52.000Z</time>
      </trkpt>
      <trkpt lat="44.1183" lon="3.14385">
        <ele>745.20001220703</ele>
        <time>2020-10-03T16:43:53.000Z</time>
      </trkpt>
      <trkpt lat="44.11827" lon="3.14388">
        <ele>744.79998779297</ele>
        <time>2020-10-03T16:43:55.000Z</time>
      </trkpt>
      <trkpt lat="44.11826" lon="3.14391">
        <ele>744.40002441406</ele>
        <time>2020-10-03T16:43:58.000Z</time>
      </trkpt>
      <trkpt lat="44.11826" lon="3.14391">
        <ele>744</ele>
        <time>2020-10-03T16:44:00.000Z</time>
      </trkpt>
      <trkpt lat="44.11822" lon="3.14394">
        <ele>743.20001220703</ele>
        <time>2020-10-03T16:44:04.000Z</time>
      </trkpt>
      <trkpt lat="44.11821" lon="3.14394">
        <ele>743</ele>
        <time>2020-10-03T16:44:05.000Z</time>
      </trkpt>
      <trkpt lat="44.11816" lon="3.14397">
        <ele>742.59997558594</ele>
        <time>2020-10-03T16:44:11.000Z</time>
      </trkpt>
      <trkpt lat="44.11814" lon="3.14397">
        <ele>743.20001220703</ele>
        <time>2020-10-03T16:44:27.000Z</time>
      </trkpt>
      <trkpt lat="44.1181" lon="3.14398">
        <ele>743</ele>
        <time>2020-10-03T16:44:42.000Z</time>
      </trkpt>
      <trkpt lat="44.1181" lon="3.14397">
        <ele>743</ele>
        <time>2020-10-03T16:45:00.000Z</time>
      </trkpt>
      <trkpt lat="44.11814" lon="3.14386">
        <ele>743</ele>
        <time>2020-10-03T16:45:12.000Z</time>
      </trkpt>
      <trkpt lat="44.11822" lon="3.14376">
        <ele>743.40002441406</ele>
        <time>2020-10-03T16:45:23.000Z</time>
      </trkpt>
      <trkpt lat="44.11824" lon="3.14373">
        <ele>743.40002441406</ele>
        <time>2020-10-03T16:45:24.000Z</time>
      </trkpt>
      <trkpt lat="44.11831" lon="3.14358">
        <ele>743.40002441406</ele>
        <time>2020-10-03T16:45:30.000Z</time>
      </trkpt>
      <trkpt lat="44.11844" lon="3.14353">
        <ele>743.79998779297</ele>
        <time>2020-10-03T16:45:37.000Z</time>
      </trkpt>
      <trkpt lat="44.11845" lon="3.14354">
        <ele>745.20001220703</ele>
        <time>2020-10-03T16:45:41.000Z</time>
      </trkpt>
      <trkpt lat="44.11846" lon="3.14354">
        <ele>746</ele>
        <time>2020-10-03T16:45:43.000Z</time>
      </trkpt>
      <trkpt lat="44.11846" lon="3.14354">
        <ele>746.40002441406</ele>
        <time>2020-10-03T16:45:44.000Z</time>
      </trkpt>
      <trkpt lat="44.11854" lon="3.14352">
        <ele>747.20001220703</ele>
        <time>2020-10-03T16:45:49.000Z</time>
      </trkpt>
      <trkpt lat="44.11859" lon="3.14351">
        <ele>747.40002441406</ele>
        <time>2020-10-03T16:45:51.000Z</time>
      </trkpt>
      <trkpt lat="44.11866" lon="3.14349">
        <ele>747.59997558594</ele>
        <time>2020-10-03T16:45:55.000Z</time>
      </trkpt>
      <trkpt lat="44.11868" lon="3.14349">
        <ele>747.59997558594</ele>
        <time>2020-10-03T16:45:56.000Z</time>
      </trkpt>
      <trkpt lat="44.11871" lon="3.14354">
        <ele>748.20001220703</ele>
        <time>2020-10-03T16:45:59.000Z</time>
      </trkpt>
      <trkpt lat="44.11872" lon="3.14356">
        <ele>748.40002441406</ele>
        <time>2020-10-03T16:46:00.000Z</time>
      </trkpt>
      <trkpt lat="44.11872" lon="3.14367">
        <ele>749.20001220703</ele>
        <time>2020-10-03T16:46:04.000Z</time>
      </trkpt>
      <trkpt lat="44.11876" lon="3.14378">
        <ele>749.40002441406</ele>
        <time>2020-10-03T16:46:11.000Z</time>
      </trkpt>
      <trkpt lat="44.1188" lon="3.14377">
        <ele>749.79998779297</ele>
        <time>2020-10-03T16:46:14.000Z</time>
      </trkpt>
      <trkpt lat="44.11882" lon="3.14376">
        <ele>750.59997558594</ele>
        <time>2020-10-03T16:46:17.000Z</time>
      </trkpt>
      <trkpt lat="44.11883" lon="3.14376">
        <ele>750.79998779297</ele>
        <time>2020-10-03T16:46:18.000Z</time>
      </trkpt>
      <trkpt lat="44.11889" lon="3.14374">
        <ele>751.20001220703</ele>
        <time>2020-10-03T16:46:23.000Z</time>
      </trkpt>
      <trkpt lat="44.11901" lon="3.14367">
        <ele>751.79998779297</ele>
        <time>2020-10-03T16:46:28.000Z</time>
      </trkpt>
      <trkpt lat="44.11903" lon="3.14366">
        <ele>751.79998779297</ele>
        <time>2020-10-03T16:46:29.000Z</time>
      </trkpt>
      <trkpt lat="44.11913" lon="3.14362">
        <ele>751.79998779297</ele>
        <time>2020-10-03T16:46:35.000Z</time>
      </trkpt>
      <trkpt lat="44.1192" lon="3.14359">
        <ele>751.59997558594</ele>
        <time>2020-10-03T16:46:42.000Z</time>
      </trkpt>
      <trkpt lat="44.11927" lon="3.14356">
        <ele>751.59997558594</ele>
        <time>2020-10-03T16:46:48.000Z</time>
      </trkpt>
      <trkpt lat="44.11939" lon="3.14357">
        <ele>751.59997558594</ele>
        <time>2020-10-03T16:46:54.000Z</time>
      </trkpt>
      <trkpt lat="44.11945" lon="3.14357">
        <ele>751.79998779297</ele>
        <time>2020-10-03T16:47:00.000Z</time>
      </trkpt>
      <trkpt lat="44.11947" lon="3.14356">
        <ele>751.79998779297</ele>
        <time>2020-10-03T16:47:01.000Z</time>
      </trkpt>
      <trkpt lat="44.11961" lon="3.14354">
        <ele>751.59997558594</ele>
        <time>2020-10-03T16:47:05.000Z</time>
      </trkpt>
      <trkpt lat="44.11975" lon="3.14356">
        <ele>751.20001220703</ele>
        <time>2020-10-03T16:47:10.000Z</time>
      </trkpt>
      <trkpt lat="44.1199" lon="3.14354">
        <ele>750.79998779297</ele>
        <time>2020-10-03T16:47:16.000Z</time>
      </trkpt>
      <trkpt lat="44.12001" lon="3.14358">
        <ele>750.79998779297</ele>
        <time>2020-10-03T16:47:21.000Z</time>
      </trkpt>
      <trkpt lat="44.12004" lon="3.14358">
        <ele>750.79998779297</ele>
        <time>2020-10-03T16:47:23.000Z</time>
      </trkpt>
      <trkpt lat="44.1201" lon="3.14358">
        <ele>750.79998779297</ele>
        <time>2020-10-03T16:47:26.000Z</time>
      </trkpt>
      <trkpt lat="44.12016" lon="3.14358">
        <ele>750.59997558594</ele>
        <time>2020-10-03T16:47:29.000Z</time>
      </trkpt>
      <trkpt lat="44.12018" lon="3.14357">
        <ele>750.79998779297</ele>
        <time>2020-10-03T16:47:30.000Z</time>
      </trkpt>
      <trkpt lat="44.12027" lon="3.14354">
        <ele>749.79998779297</ele>
        <time>2020-10-03T16:47:35.000Z</time>
      </trkpt>
      <trkpt lat="44.12027" lon="3.14354">
        <ele>749.59997558594</ele>
        <time>2020-10-03T16:47:37.000Z</time>
      </trkpt>
      <trkpt lat="44.12031" lon="3.14351">
        <ele>749.40002441406</ele>
        <time>2020-10-03T16:47:48.000Z</time>
      </trkpt>
      <trkpt lat="44.12037" lon="3.14344">
        <ele>748.59997558594</ele>
        <time>2020-10-03T16:48:03.000Z</time>
      </trkpt>
      <trkpt lat="44.12042" lon="3.14338">
        <ele>748.59997558594</ele>
        <time>2020-10-03T16:48:07.000Z</time>
      </trkpt>
      <trkpt lat="44.12045" lon="3.14328">
        <ele>747.40002441406</ele>
        <time>2020-10-03T16:48:10.000Z</time>
      </trkpt>
      <trkpt lat="44.12043" lon="3.14325">
        <ele>746.40002441406</ele>
        <time>2020-10-03T16:48:11.000Z</time>
      </trkpt>
      <trkpt lat="44.12041" lon="3.14321">
        <ele>745</ele>
        <time>2020-10-03T16:48:12.000Z</time>
      </trkpt>
      <trkpt lat="44.12038" lon="3.14321">
        <ele>743.40002441406</ele>
        <time>2020-10-03T16:48:13.000Z</time>
      </trkpt>
      <trkpt lat="44.12036" lon="3.1432">
        <ele>742.20001220703</ele>
        <time>2020-10-03T16:48:14.000Z</time>
      </trkpt>
      <trkpt lat="44.12033" lon="3.14319">
        <ele>741</ele>
        <time>2020-10-03T16:48:15.000Z</time>
      </trkpt>
      <trkpt lat="44.12032" lon="3.14318">
        <ele>739.79998779297</ele>
        <time>2020-10-03T16:48:16.000Z</time>
      </trkpt>
      <trkpt lat="44.12032" lon="3.14316">
        <ele>738.20001220703</ele>
        <time>2020-10-03T16:48:17.000Z</time>
      </trkpt>
      <trkpt lat="44.12031" lon="3.14314">
        <ele>737</ele>
        <time>2020-10-03T16:48:18.000Z</time>
      </trkpt>
      <trkpt lat="44.1203" lon="3.14312">
        <ele>735.59997558594</ele>
        <time>2020-10-03T16:48:19.000Z</time>
      </trkpt>
      <trkpt lat="44.1203" lon="3.1431">
        <ele>734.20001220703</ele>
        <time>2020-10-03T16:48:20.000Z</time>
      </trkpt>
      <trkpt lat="44.1203" lon="3.14309">
        <ele>733.20001220703</ele>
        <time>2020-10-03T16:48:21.000Z</time>
      </trkpt>
      <trkpt lat="44.12028" lon="3.14308">
        <ele>732.40002441406</ele>
        <time>2020-10-03T16:48:22.000Z</time>
      </trkpt>
      <trkpt lat="44.12027" lon="3.14306">
        <ele>731.79998779297</ele>
        <time>2020-10-03T16:48:23.000Z</time>
      </trkpt>
      <trkpt lat="44.12025" lon="3.14305">
        <ele>731</ele>
        <time>2020-10-03T16:48:24.000Z</time>
      </trkpt>
      <trkpt lat="44.12023" lon="3.14304">
        <ele>730.40002441406</ele>
        <time>2020-10-03T16:48:25.000Z</time>
      </trkpt>
      <trkpt lat="44.12019" lon="3.14304">
        <ele>728.79998779297</ele>
        <time>2020-10-03T16:48:27.000Z</time>
      </trkpt>
      <trkpt lat="44.12017" lon="3.14304">
        <ele>727.79998779297</ele>
        <time>2020-10-03T16:48:28.000Z</time>
      </trkpt>
      <trkpt lat="44.12017" lon="3.14304">
        <ele>727</ele>
        <time>2020-10-03T16:48:29.000Z</time>
      </trkpt>
      <trkpt lat="44.12013" lon="3.14305">
        <ele>725.20001220703</ele>
        <time>2020-10-03T16:48:31.000Z</time>
      </trkpt>
      <trkpt lat="44.12012" lon="3.14304">
        <ele>724.59997558594</ele>
        <time>2020-10-03T16:48:32.000Z</time>
      </trkpt>
      <trkpt lat="44.1201" lon="3.14304">
        <ele>723.59997558594</ele>
        <time>2020-10-03T16:48:33.000Z</time>
      </trkpt>
      <trkpt lat="44.12008" lon="3.14301">
        <ele>722</ele>
        <time>2020-10-03T16:48:35.000Z</time>
      </trkpt>
      <trkpt lat="44.12007" lon="3.14299">
        <ele>721.40002441406</ele>
        <time>2020-10-03T16:48:36.000Z</time>
      </trkpt>
      <trkpt lat="44.12005" lon="3.14296">
        <ele>721</ele>
        <time>2020-10-03T16:48:37.000Z</time>
      </trkpt>
      <trkpt lat="44.12003" lon="3.14294">
        <ele>720.59997558594</ele>
        <time>2020-10-03T16:48:38.000Z</time>
      </trkpt>
      <trkpt lat="44.11995" lon="3.14283">
        <ele>719.59997558594</ele>
        <time>2020-10-03T16:48:43.000Z</time>
      </trkpt>
      <trkpt lat="44.1199" lon="3.14276">
        <ele>717.79998779297</ele>
        <time>2020-10-03T16:48:45.000Z</time>
      </trkpt>
      <trkpt lat="44.11986" lon="3.14272">
        <ele>716.79998779297</ele>
        <time>2020-10-03T16:48:46.000Z</time>
      </trkpt>
      <trkpt lat="44.11983" lon="3.14269">
        <ele>715.40002441406</ele>
        <time>2020-10-03T16:48:47.000Z</time>
      </trkpt>
      <trkpt lat="44.11981" lon="3.14267">
        <ele>714.20001220703</ele>
        <time>2020-10-03T16:48:48.000Z</time>
      </trkpt>
      <trkpt lat="44.11978" lon="3.14266">
        <ele>713</ele>
        <time>2020-10-03T16:48:49.000Z</time>
      </trkpt>
      <trkpt lat="44.11977" lon="3.14265">
        <ele>711.59997558594</ele>
        <time>2020-10-03T16:48:50.000Z</time>
      </trkpt>
      <trkpt lat="44.11976" lon="3.14263">
        <ele>710.20001220703</ele>
        <time>2020-10-03T16:48:51.000Z</time>
      </trkpt>
      <trkpt lat="44.11976" lon="3.14261">
        <ele>708.40002441406</ele>
        <time>2020-10-03T16:48:52.000Z</time>
      </trkpt>
      <trkpt lat="44.11977" lon="3.14258">
        <ele>706.59997558594</ele>
        <time>2020-10-03T16:48:53.000Z</time>
      </trkpt>
      <trkpt lat="44.11977" lon="3.14256">
        <ele>705</ele>
        <time>2020-10-03T16:48:54.000Z</time>
      </trkpt>
      <trkpt lat="44.11978" lon="3.14254">
        <ele>703.59997558594</ele>
        <time>2020-10-03T16:48:55.000Z</time>
      </trkpt>
      <trkpt lat="44.11978" lon="3.14252">
        <ele>702.20001220703</ele>
        <time>2020-10-03T16:48:56.000Z</time>
      </trkpt>
      <trkpt lat="44.11978" lon="3.14249">
        <ele>701</ele>
        <time>2020-10-03T16:48:57.000Z</time>
      </trkpt>
      <trkpt lat="44.11977" lon="3.14247">
        <ele>699.59997558594</ele>
        <time>2020-10-03T16:48:58.000Z</time>
      </trkpt>
      <trkpt lat="44.11975" lon="3.14244">
        <ele>698.40002441406</ele>
        <time>2020-10-03T16:48:59.000Z</time>
      </trkpt>
      <trkpt lat="44.11975" lon="3.14242">
        <ele>697.40002441406</ele>
        <time>2020-10-03T16:49:00.000Z</time>
      </trkpt>
      <trkpt lat="44.11974" lon="3.14239">
        <ele>695.79998779297</ele>
        <time>2020-10-03T16:49:01.000Z</time>
      </trkpt>
      <trkpt lat="44.11973" lon="3.14235">
        <ele>694.20001220703</ele>
        <time>2020-10-03T16:49:02.000Z</time>
      </trkpt>
      <trkpt lat="44.11971" lon="3.14231">
        <ele>692.59997558594</ele>
        <time>2020-10-03T16:49:03.000Z</time>
      </trkpt>
      <trkpt lat="44.1197" lon="3.14229">
        <ele>691</ele>
        <time>2020-10-03T16:49:04.000Z</time>
      </trkpt>
      <trkpt lat="44.11969" lon="3.14226">
        <ele>689.59997558594</ele>
        <time>2020-10-03T16:49:05.000Z</time>
      </trkpt>
      <trkpt lat="44.1197" lon="3.14224">
        <ele>687</ele>
        <time>2020-10-03T16:49:06.000Z</time>
      </trkpt>
      <trkpt lat="44.1197" lon="3.14222">
        <ele>685.79998779297</ele>
        <time>2020-10-03T16:49:07.000Z</time>
      </trkpt>
      <trkpt lat="44.11972" lon="3.14217">
        <ele>684.20001220703</ele>
        <time>2020-10-03T16:49:09.000Z</time>
      </trkpt>
      <trkpt lat="44.11971" lon="3.14215">
        <ele>683</ele>
        <time>2020-10-03T16:49:10.000Z</time>
      </trkpt>
      <trkpt lat="44.1197" lon="3.14213">
        <ele>682</ele>
        <time>2020-10-03T16:49:11.000Z</time>
      </trkpt>
      <trkpt lat="44.11969" lon="3.14211">
        <ele>681</ele>
        <time>2020-10-03T16:49:12.000Z</time>
      </trkpt>
      <trkpt lat="44.11968" lon="3.14208">
        <ele>679.79998779297</ele>
        <time>2020-10-03T16:49:13.000Z</time>
      </trkpt>
      <trkpt lat="44.11967" lon="3.14206">
        <ele>678.79998779297</ele>
        <time>2020-10-03T16:49:14.000Z</time>
      </trkpt>
      <trkpt lat="44.11966" lon="3.14203">
        <ele>677.59997558594</ele>
        <time>2020-10-03T16:49:15.000Z</time>
      </trkpt>
      <trkpt lat="44.11964" lon="3.142">
        <ele>676.59997558594</ele>
        <time>2020-10-03T16:49:16.000Z</time>
      </trkpt>
      <trkpt lat="44.11964" lon="3.14197">
        <ele>675.20001220703</ele>
        <time>2020-10-03T16:49:17.000Z</time>
      </trkpt>
      <trkpt lat="44.11963" lon="3.14193">
        <ele>673.79998779297</ele>
        <time>2020-10-03T16:49:18.000Z</time>
      </trkpt>
      <trkpt lat="44.11961" lon="3.14188">
        <ele>672.79998779297</ele>
        <time>2020-10-03T16:49:19.000Z</time>
      </trkpt>
      <trkpt lat="44.1196" lon="3.14182">
        <ele>671.59997558594</ele>
        <time>2020-10-03T16:49:20.000Z</time>
      </trkpt>
      <trkpt lat="44.11958" lon="3.14178">
        <ele>670.40002441406</ele>
        <time>2020-10-03T16:49:21.000Z</time>
      </trkpt>
      <trkpt lat="44.11955" lon="3.14173">
        <ele>669.20001220703</ele>
        <time>2020-10-03T16:49:22.000Z</time>
      </trkpt>
      <trkpt lat="44.11953" lon="3.14168">
        <ele>668</ele>
        <time>2020-10-03T16:49:23.000Z</time>
      </trkpt>
      <trkpt lat="44.1195" lon="3.14163">
        <ele>666.79998779297</ele>
        <time>2020-10-03T16:49:24.000Z</time>
      </trkpt>
      <trkpt lat="44.11946" lon="3.14157">
        <ele>665.59997558594</ele>
        <time>2020-10-03T16:49:25.000Z</time>
      </trkpt>
      <trkpt lat="44.11943" lon="3.14151">
        <ele>664.20001220703</ele>
        <time>2020-10-03T16:49:26.000Z</time>
      </trkpt>
      <trkpt lat="44.11938" lon="3.14145">
        <ele>662.59997558594</ele>
        <time>2020-10-03T16:49:27.000Z</time>
      </trkpt>
      <trkpt lat="44.11933" lon="3.1414">
        <ele>660.79998779297</ele>
        <time>2020-10-03T16:49:28.000Z</time>
      </trkpt>
      <trkpt lat="44.1193" lon="3.14138">
        <ele>659.20001220703</ele>
        <time>2020-10-03T16:49:29.000Z</time>
      </trkpt>
      <trkpt lat="44.11927" lon="3.14135">
        <ele>657.59997558594</ele>
        <time>2020-10-03T16:49:30.000Z</time>
      </trkpt>
      <trkpt lat="44.11924" lon="3.14132">
        <ele>656.20001220703</ele>
        <time>2020-10-03T16:49:31.000Z</time>
      </trkpt>
      <trkpt lat="44.1192" lon="3.14131">
        <ele>654.40002441406</ele>
        <time>2020-10-03T16:49:32.000Z</time>
      </trkpt>
      <trkpt lat="44.11919" lon="3.14131">
        <ele>652.59997558594</ele>
        <time>2020-10-03T16:49:33.000Z</time>
      </trkpt>
      <trkpt lat="44.11918" lon="3.14131">
        <ele>650.40002441406</ele>
        <time>2020-10-03T16:49:34.000Z</time>
      </trkpt>
      <trkpt lat="44.11917" lon="3.14131">
        <ele>648.40002441406</ele>
        <time>2020-10-03T16:49:35.000Z</time>
      </trkpt>
      <trkpt lat="44.11915" lon="3.14131">
        <ele>647.20001220703</ele>
        <time>2020-10-03T16:49:37.000Z</time>
      </trkpt>
      <trkpt lat="44.11914" lon="3.14131">
        <ele>645.59997558594</ele>
        <time>2020-10-03T16:49:39.000Z</time>
      </trkpt>
      <trkpt lat="44.11915" lon="3.14131">
        <ele>644.40002441406</ele>
        <time>2020-10-03T16:49:41.000Z</time>
      </trkpt>
      <trkpt lat="44.11914" lon="3.14131">
        <ele>644</ele>
        <time>2020-10-03T16:49:45.000Z</time>
      </trkpt>
      <trkpt lat="44.11911" lon="3.1413">
        <ele>644</ele>
        <time>2020-10-03T16:49:56.000Z</time>
      </trkpt>
      <trkpt lat="44.11907" lon="3.14134">
        <ele>643.59997558594</ele>
        <time>2020-10-03T16:50:07.000Z</time>
      </trkpt>
      <trkpt lat="44.11894" lon="3.14133">
        <ele>642.79998779297</ele>
        <time>2020-10-03T16:50:13.000Z</time>
      </trkpt>
      <trkpt lat="44.1189" lon="3.14135">
        <ele>641</ele>
        <time>2020-10-03T16:50:15.000Z</time>
      </trkpt>
      <trkpt lat="44.11886" lon="3.14138">
        <ele>639.59997558594</ele>
        <time>2020-10-03T16:50:17.000Z</time>
      </trkpt>
      <trkpt lat="44.11884" lon="3.14136">
        <ele>637.79998779297</ele>
        <time>2020-10-03T16:50:19.000Z</time>
      </trkpt>
      <trkpt lat="44.11882" lon="3.14133">
        <ele>637.20001220703</ele>
        <time>2020-10-03T16:50:20.000Z</time>
      </trkpt>
      <trkpt lat="44.1188" lon="3.14129">
        <ele>636.79998779297</ele>
        <time>2020-10-03T16:50:21.000Z</time>
      </trkpt>
      <trkpt lat="44.11877" lon="3.14127">
        <ele>636.20001220703</ele>
        <time>2020-10-03T16:50:22.000Z</time>
      </trkpt>
      <trkpt lat="44.11871" lon="3.14125">
        <ele>635.59997558594</ele>
        <time>2020-10-03T16:50:23.000Z</time>
      </trkpt>
      <trkpt lat="44.11867" lon="3.14121">
        <ele>635</ele>
        <time>2020-10-03T16:50:24.000Z</time>
      </trkpt>
      <trkpt lat="44.11863" lon="3.14118">
        <ele>634.20001220703</ele>
        <time>2020-10-03T16:50:25.000Z</time>
      </trkpt>
      <trkpt lat="44.11848" lon="3.14112">
        <ele>633</ele>
        <time>2020-10-03T16:50:28.000Z</time>
      </trkpt>
      <trkpt lat="44.11842" lon="3.1411">
        <ele>632.20001220703</ele>
        <time>2020-10-03T16:50:29.000Z</time>
      </trkpt>
      <trkpt lat="44.11836" lon="3.14105">
        <ele>631.40002441406</ele>
        <time>2020-10-03T16:50:30.000Z</time>
      </trkpt>
      <trkpt lat="44.1183" lon="3.14102">
        <ele>630.20001220703</ele>
        <time>2020-10-03T16:50:31.000Z</time>
      </trkpt>
      <trkpt lat="44.11824" lon="3.14098">
        <ele>628.59997558594</ele>
        <time>2020-10-03T16:50:32.000Z</time>
      </trkpt>
      <trkpt lat="44.11819" lon="3.14096">
        <ele>627.20001220703</ele>
        <time>2020-10-03T16:50:33.000Z</time>
      </trkpt>
      <trkpt lat="44.11815" lon="3.14094">
        <ele>625.79998779297</ele>
        <time>2020-10-03T16:50:34.000Z</time>
      </trkpt>
      <trkpt lat="44.11808" lon="3.14092">
        <ele>624.20001220703</ele>
        <time>2020-10-03T16:50:36.000Z</time>
      </trkpt>
      <trkpt lat="44.11803" lon="3.1409">
        <ele>622.79998779297</ele>
        <time>2020-10-03T16:50:38.000Z</time>
      </trkpt>
      <trkpt lat="44.118" lon="3.14089">
        <ele>621.20001220703</ele>
        <time>2020-10-03T16:50:39.000Z</time>
      </trkpt>
      <trkpt lat="44.11798" lon="3.1409">
        <ele>620.20001220703</ele>
        <time>2020-10-03T16:50:40.000Z</time>
      </trkpt>
      <trkpt lat="44.11792" lon="3.1409">
        <ele>618.20001220703</ele>
        <time>2020-10-03T16:50:42.000Z</time>
      </trkpt>
      <trkpt lat="44.1179" lon="3.14088">
        <ele>617.20001220703</ele>
        <time>2020-10-03T16:50:43.000Z</time>
      </trkpt>
      <trkpt lat="44.11788" lon="3.14087">
        <ele>616</ele>
        <time>2020-10-03T16:50:44.000Z</time>
      </trkpt>
      <trkpt lat="44.11786" lon="3.14085">
        <ele>615.20001220703</ele>
        <time>2020-10-03T16:50:45.000Z</time>
      </trkpt>
      <trkpt lat="44.11785" lon="3.14084">
        <ele>614</ele>
        <time>2020-10-03T16:50:46.000Z</time>
      </trkpt>
      <trkpt lat="44.11784" lon="3.14083">
        <ele>613</ele>
        <time>2020-10-03T16:50:47.000Z</time>
      </trkpt>
      <trkpt lat="44.11782" lon="3.14083">
        <ele>611.20001220703</ele>
        <time>2020-10-03T16:50:49.000Z</time>
      </trkpt>
      <trkpt lat="44.11784" lon="3.14082">
        <ele>609.40002441406</ele>
        <time>2020-10-03T16:50:51.000Z</time>
      </trkpt>
      <trkpt lat="44.11785" lon="3.14082">
        <ele>608.40002441406</ele>
        <time>2020-10-03T16:50:52.000Z</time>
      </trkpt>
      <trkpt lat="44.11786" lon="3.14081">
        <ele>607.40002441406</ele>
        <time>2020-10-03T16:50:53.000Z</time>
      </trkpt>
      <trkpt lat="44.11786" lon="3.14079">
        <ele>606.20001220703</ele>
        <time>2020-10-03T16:50:54.000Z</time>
      </trkpt>
      <trkpt lat="44.11787" lon="3.14076">
        <ele>605</ele>
        <time>2020-10-03T16:50:55.000Z</time>
      </trkpt>
      <trkpt lat="44.11787" lon="3.14075">
        <ele>604.20001220703</ele>
        <time>2020-10-03T16:50:56.000Z</time>
      </trkpt>
      <trkpt lat="44.11787" lon="3.14073">
        <ele>603.59997558594</ele>
        <time>2020-10-03T16:50:57.000Z</time>
      </trkpt>
      <trkpt lat="44.11788" lon="3.14068">
        <ele>601.79998779297</ele>
        <time>2020-10-03T16:50:59.000Z</time>
      </trkpt>
      <trkpt lat="44.11788" lon="3.14064">
        <ele>601</ele>
        <time>2020-10-03T16:51:00.000Z</time>
      </trkpt>
      <trkpt lat="44.11787" lon="3.1406">
        <ele>600.20001220703</ele>
        <time>2020-10-03T16:51:01.000Z</time>
      </trkpt>
      <trkpt lat="44.11788" lon="3.14057">
        <ele>598.59997558594</ele>
        <time>2020-10-03T16:51:02.000Z</time>
      </trkpt>
      <trkpt lat="44.11786" lon="3.14049">
        <ele>597.20001220703</ele>
        <time>2020-10-03T16:51:04.000Z</time>
      </trkpt>
      <trkpt lat="44.11782" lon="3.14046">
        <ele>596.40002441406</ele>
        <time>2020-10-03T16:51:05.000Z</time>
      </trkpt>
      <trkpt lat="44.1178" lon="3.14044">
        <ele>595.40002441406</ele>
        <time>2020-10-03T16:51:06.000Z</time>
      </trkpt>
      <trkpt lat="44.11777" lon="3.14039">
        <ele>594.40002441406</ele>
        <time>2020-10-03T16:51:08.000Z</time>
      </trkpt>
      <trkpt lat="44.11771" lon="3.14034">
        <ele>594</ele>
        <time>2020-10-03T16:51:11.000Z</time>
      </trkpt>
      <trkpt lat="44.11753" lon="3.14027">
        <ele>593.59997558594</ele>
        <time>2020-10-03T16:51:15.000Z</time>
      </trkpt>
      <trkpt lat="44.11748" lon="3.14026">
        <ele>593.40002441406</ele>
        <time>2020-10-03T16:51:16.000Z</time>
      </trkpt>
      <trkpt lat="44.11732" lon="3.14024">
        <ele>593.20001220703</ele>
        <time>2020-10-03T16:51:20.000Z</time>
      </trkpt>
      <trkpt lat="44.11722" lon="3.14013">
        <ele>592</ele>
        <time>2020-10-03T16:51:24.000Z</time>
      </trkpt>
      <trkpt lat="44.11718" lon="3.14009">
        <ele>591.59997558594</ele>
        <time>2020-10-03T16:51:25.000Z</time>
      </trkpt>
      <trkpt lat="44.1171" lon="3.13997">
        <ele>591</ele>
        <time>2020-10-03T16:51:28.000Z</time>
      </trkpt>
      <trkpt lat="44.11705" lon="3.13986">
        <ele>589.20001220703</ele>
        <time>2020-10-03T16:51:30.000Z</time>
      </trkpt>
      <trkpt lat="44.11703" lon="3.13981">
        <ele>587</ele>
        <time>2020-10-03T16:51:31.000Z</time>
      </trkpt>
      <trkpt lat="44.117" lon="3.13973">
        <ele>585</ele>
        <time>2020-10-03T16:51:33.000Z</time>
      </trkpt>
      <trkpt lat="44.11699" lon="3.13971">
        <ele>583.79998779297</ele>
        <time>2020-10-03T16:51:34.000Z</time>
      </trkpt>
      <trkpt lat="44.11697" lon="3.1397">
        <ele>582.40002441406</ele>
        <time>2020-10-03T16:51:35.000Z</time>
      </trkpt>
      <trkpt lat="44.11697" lon="3.13972">
        <ele>580.79998779297</ele>
        <time>2020-10-03T16:51:36.000Z</time>
      </trkpt>
      <trkpt lat="44.11694" lon="3.13973">
        <ele>579.40002441406</ele>
        <time>2020-10-03T16:51:37.000Z</time>
      </trkpt>
      <trkpt lat="44.11691" lon="3.13975">
        <ele>577.59997558594</ele>
        <time>2020-10-03T16:51:39.000Z</time>
      </trkpt>
      <trkpt lat="44.1169" lon="3.13974">
        <ele>576.40002441406</ele>
        <time>2020-10-03T16:51:40.000Z</time>
      </trkpt>
      <trkpt lat="44.11689" lon="3.13972">
        <ele>575.40002441406</ele>
        <time>2020-10-03T16:51:41.000Z</time>
      </trkpt>
      <trkpt lat="44.11687" lon="3.13965">
        <ele>573.40002441406</ele>
        <time>2020-10-03T16:51:43.000Z</time>
      </trkpt>
      <trkpt lat="44.11685" lon="3.1396">
        <ele>572.20001220703</ele>
        <time>2020-10-03T16:51:44.000Z</time>
      </trkpt>
      <trkpt lat="44.11684" lon="3.13955">
        <ele>571</ele>
        <time>2020-10-03T16:51:45.000Z</time>
      </trkpt>
      <trkpt lat="44.11682" lon="3.1395">
        <ele>569.59997558594</ele>
        <time>2020-10-03T16:51:46.000Z</time>
      </trkpt>
      <trkpt lat="44.11678" lon="3.13945">
        <ele>568.59997558594</ele>
        <time>2020-10-03T16:51:48.000Z</time>
      </trkpt>
      <trkpt lat="44.11676" lon="3.13944">
        <ele>568.20001220703</ele>
        <time>2020-10-03T16:51:49.000Z</time>
      </trkpt>
      <trkpt lat="44.1167" lon="3.13935">
        <ele>567.40002441406</ele>
        <time>2020-10-03T16:51:53.000Z</time>
      </trkpt>
      <trkpt lat="44.11667" lon="3.13933">
        <ele>567.20001220703</ele>
        <time>2020-10-03T16:51:54.000Z</time>
      </trkpt>
      <trkpt lat="44.11659" lon="3.13924">
        <ele>566.20001220703</ele>
        <time>2020-10-03T16:51:57.000Z</time>
      </trkpt>
      <trkpt lat="44.11651" lon="3.13914">
        <ele>564.79998779297</ele>
        <time>2020-10-03T16:52:00.000Z</time>
      </trkpt>
      <trkpt lat="44.11647" lon="3.13911">
        <ele>563.40002441406</ele>
        <time>2020-10-03T16:52:01.000Z</time>
      </trkpt>
      <trkpt lat="44.1164" lon="3.13906">
        <ele>562</ele>
        <time>2020-10-03T16:52:03.000Z</time>
      </trkpt>
      <trkpt lat="44.11633" lon="3.13904">
        <ele>560.40002441406</ele>
        <time>2020-10-03T16:52:05.000Z</time>
      </trkpt>
      <trkpt lat="44.11625" lon="3.13904">
        <ele>558.79998779297</ele>
        <time>2020-10-03T16:52:07.000Z</time>
      </trkpt>
      <trkpt lat="44.11621" lon="3.13905">
        <ele>558</ele>
        <time>2020-10-03T16:52:08.000Z</time>
      </trkpt>
      <trkpt lat="44.11618" lon="3.13905">
        <ele>556.59997558594</ele>
        <time>2020-10-03T16:52:09.000Z</time>
      </trkpt>
      <trkpt lat="44.1161" lon="3.13908">
        <ele>554.40002441406</ele>
        <time>2020-10-03T16:52:11.000Z</time>
      </trkpt>
      <trkpt lat="44.11604" lon="3.13908">
        <ele>552.79998779297</ele>
        <time>2020-10-03T16:52:13.000Z</time>
      </trkpt>
      <trkpt lat="44.11597" lon="3.13909">
        <ele>550.40002441406</ele>
        <time>2020-10-03T16:52:15.000Z</time>
      </trkpt>
      <trkpt lat="44.11593" lon="3.13909">
        <ele>549.20001220703</ele>
        <time>2020-10-03T16:52:16.000Z</time>
      </trkpt>
      <trkpt lat="44.11588" lon="3.13913">
        <ele>547.79998779297</ele>
        <time>2020-10-03T16:52:18.000Z</time>
      </trkpt>
      <trkpt lat="44.11579" lon="3.1393">
        <ele>546.20001220703</ele>
        <time>2020-10-03T16:52:22.000Z</time>
      </trkpt>
      <trkpt lat="44.11577" lon="3.13939">
        <ele>544.59997558594</ele>
        <time>2020-10-03T16:52:24.000Z</time>
      </trkpt>
      <trkpt lat="44.11572" lon="3.13943">
        <ele>543.79998779297</ele>
        <time>2020-10-03T16:52:25.000Z</time>
      </trkpt>
      <trkpt lat="44.11569" lon="3.13947">
        <ele>543.40002441406</ele>
        <time>2020-10-03T16:52:26.000Z</time>
      </trkpt>
      <trkpt lat="44.11558" lon="3.1397">
        <ele>542.20001220703</ele>
        <time>2020-10-03T16:52:29.000Z</time>
      </trkpt>
      <trkpt lat="44.11547" lon="3.13992">
        <ele>541.20001220703</ele>
        <time>2020-10-03T16:52:32.000Z</time>
      </trkpt>
      <trkpt lat="44.11543" lon="3.14">
        <ele>541</ele>
        <time>2020-10-03T16:52:33.000Z</time>
      </trkpt>
      <trkpt lat="44.11536" lon="3.14022">
        <ele>540</ele>
        <time>2020-10-03T16:52:36.000Z</time>
      </trkpt>
      <trkpt lat="44.11534" lon="3.1403">
        <ele>539.20001220703</ele>
        <time>2020-10-03T16:52:37.000Z</time>
      </trkpt>
      <trkpt lat="44.11533" lon="3.14038">
        <ele>538.40002441406</ele>
        <time>2020-10-03T16:52:38.000Z</time>
      </trkpt>
      <trkpt lat="44.11531" lon="3.14046">
        <ele>537.40002441406</ele>
        <time>2020-10-03T16:52:39.000Z</time>
      </trkpt>
      <trkpt lat="44.11523" lon="3.14062">
        <ele>535.40002441406</ele>
        <time>2020-10-03T16:52:41.000Z</time>
      </trkpt>
      <trkpt lat="44.11515" lon="3.1408">
        <ele>534</ele>
        <time>2020-10-03T16:52:43.000Z</time>
      </trkpt>
      <trkpt lat="44.11507" lon="3.14094">
        <ele>533</ele>
        <time>2020-10-03T16:52:45.000Z</time>
      </trkpt>
      <trkpt lat="44.11502" lon="3.14099">
        <ele>532.79998779297</ele>
        <time>2020-10-03T16:52:46.000Z</time>
      </trkpt>
      <trkpt lat="44.11489" lon="3.14106">
        <ele>531.79998779297</ele>
        <time>2020-10-03T16:52:48.000Z</time>
      </trkpt>
      <trkpt lat="44.11482" lon="3.14109">
        <ele>531.20001220703</ele>
        <time>2020-10-03T16:52:49.000Z</time>
      </trkpt>
      <trkpt lat="44.11478" lon="3.14113">
        <ele>530.59997558594</ele>
        <time>2020-10-03T16:52:50.000Z</time>
      </trkpt>
      <trkpt lat="44.11472" lon="3.14118">
        <ele>528.20001220703</ele>
        <time>2020-10-03T16:52:52.000Z</time>
      </trkpt>
      <trkpt lat="44.11467" lon="3.14119">
        <ele>527</ele>
        <time>2020-10-03T16:52:54.000Z</time>
      </trkpt>
      <trkpt lat="44.11462" lon="3.1412">
        <ele>525.40002441406</ele>
        <time>2020-10-03T16:52:56.000Z</time>
      </trkpt>
      <trkpt lat="44.11459" lon="3.1412">
        <ele>524.59997558594</ele>
        <time>2020-10-03T16:52:57.000Z</time>
      </trkpt>
      <trkpt lat="44.11456" lon="3.1412">
        <ele>524</ele>
        <time>2020-10-03T16:52:58.000Z</time>
      </trkpt>
      <trkpt lat="44.11448" lon="3.14122">
        <ele>521.59997558594</ele>
        <time>2020-10-03T16:53:00.000Z</time>
      </trkpt>
      <trkpt lat="44.11443" lon="3.14123">
        <ele>520.79998779297</ele>
        <time>2020-10-03T16:53:01.000Z</time>
      </trkpt>
      <trkpt lat="44.11438" lon="3.14124">
        <ele>520</ele>
        <time>2020-10-03T16:53:02.000Z</time>
      </trkpt>
      <trkpt lat="44.11433" lon="3.14127">
        <ele>518.40002441406</ele>
        <time>2020-10-03T16:53:04.000Z</time>
      </trkpt>
      <trkpt lat="44.11429" lon="3.14133">
        <ele>516.59997558594</ele>
        <time>2020-10-03T16:53:06.000Z</time>
      </trkpt>
      <trkpt lat="44.11421" lon="3.14136">
        <ele>515</ele>
        <time>2020-10-03T16:53:08.000Z</time>
      </trkpt>
      <trkpt lat="44.11417" lon="3.14137">
        <ele>514.20001220703</ele>
        <time>2020-10-03T16:53:09.000Z</time>
      </trkpt>
      <trkpt lat="44.11415" lon="3.14137">
        <ele>513.79998779297</ele>
        <time>2020-10-03T16:53:10.000Z</time>
      </trkpt>
      <trkpt lat="44.11413" lon="3.14138">
        <ele>513.20001220703</ele>
        <time>2020-10-03T16:53:12.000Z</time>
      </trkpt>
      <trkpt lat="44.11411" lon="3.14139">
        <ele>512.40002441406</ele>
        <time>2020-10-03T16:53:15.000Z</time>
      </trkpt>
      <trkpt lat="44.11411" lon="3.1414">
        <ele>511.39999389648</ele>
        <time>2020-10-03T16:53:19.000Z</time>
      </trkpt>
      <trkpt lat="44.11409" lon="3.14138">
        <ele>510.39999389648</ele>
        <time>2020-10-03T16:53:37.000Z</time>
      </trkpt>
      <trkpt lat="44.114" lon="3.14136">
        <ele>510.20001220703</ele>
        <time>2020-10-03T16:53:41.000Z</time>
      </trkpt>
      <trkpt lat="44.11385" lon="3.14132">
        <ele>510</ele>
        <time>2020-10-03T16:53:45.000Z</time>
      </trkpt>
      <trkpt lat="44.11379" lon="3.1413">
        <ele>510</ele>
        <time>2020-10-03T16:53:46.000Z</time>
      </trkpt>
      <trkpt lat="44.11356" lon="3.14127">
        <ele>509.60000610352</ele>
        <time>2020-10-03T16:53:50.000Z</time>
      </trkpt>
      <trkpt lat="44.11352" lon="3.14127">
        <ele>509.39999389648</ele>
        <time>2020-10-03T16:53:51.000Z</time>
      </trkpt>
      <trkpt lat="44.11339" lon="3.1412">
        <ele>509</ele>
        <time>2020-10-03T16:53:54.000Z</time>
      </trkpt>
      <trkpt lat="44.11334" lon="3.14117">
        <ele>508.20001220703</ele>
        <time>2020-10-03T16:53:55.000Z</time>
      </trkpt>
      <trkpt lat="44.11328" lon="3.14115">
        <ele>507.20001220703</ele>
        <time>2020-10-03T16:53:56.000Z</time>
      </trkpt>
      <trkpt lat="44.11324" lon="3.14112">
        <ele>506</ele>
        <time>2020-10-03T16:53:57.000Z</time>
      </trkpt>
      <trkpt lat="44.11319" lon="3.14109">
        <ele>503.60000610352</ele>
        <time>2020-10-03T16:53:58.000Z</time>
      </trkpt>
      <trkpt lat="44.11315" lon="3.14108">
        <ele>502.60000610352</ele>
        <time>2020-10-03T16:53:59.000Z</time>
      </trkpt>
      <trkpt lat="44.1131" lon="3.14107">
        <ele>501.79998779297</ele>
        <time>2020-10-03T16:54:00.000Z</time>
      </trkpt>
      <trkpt lat="44.11302" lon="3.14103">
        <ele>500</ele>
        <time>2020-10-03T16:54:02.000Z</time>
      </trkpt>
      <trkpt lat="44.11299" lon="3.141">
        <ele>498.79998779297</ele>
        <time>2020-10-03T16:54:03.000Z</time>
      </trkpt>
      <trkpt lat="44.11295" lon="3.14096">
        <ele>497.20001220703</ele>
        <time>2020-10-03T16:54:04.000Z</time>
      </trkpt>
      <trkpt lat="44.11291" lon="3.14089">
        <ele>495.79998779297</ele>
        <time>2020-10-03T16:54:05.000Z</time>
      </trkpt>
      <trkpt lat="44.11287" lon="3.14083">
        <ele>494.39999389648</ele>
        <time>2020-10-03T16:54:06.000Z</time>
      </trkpt>
      <trkpt lat="44.11284" lon="3.14077">
        <ele>493</ele>
        <time>2020-10-03T16:54:07.000Z</time>
      </trkpt>
      <trkpt lat="44.11281" lon="3.14073">
        <ele>491.60000610352</ele>
        <time>2020-10-03T16:54:08.000Z</time>
      </trkpt>
      <trkpt lat="44.11278" lon="3.14069">
        <ele>490.20001220703</ele>
        <time>2020-10-03T16:54:09.000Z</time>
      </trkpt>
      <trkpt lat="44.11274" lon="3.14064">
        <ele>488.60000610352</ele>
        <time>2020-10-03T16:54:10.000Z</time>
      </trkpt>
      <trkpt lat="44.11271" lon="3.14058">
        <ele>487.20001220703</ele>
        <time>2020-10-03T16:54:11.000Z</time>
      </trkpt>
      <trkpt lat="44.11267" lon="3.14051">
        <ele>485.60000610352</ele>
        <time>2020-10-03T16:54:12.000Z</time>
      </trkpt>
      <trkpt lat="44.11263" lon="3.14044">
        <ele>484</ele>
        <time>2020-10-03T16:54:13.000Z</time>
      </trkpt>
      <trkpt lat="44.11258" lon="3.14036">
        <ele>482.20001220703</ele>
        <time>2020-10-03T16:54:14.000Z</time>
      </trkpt>
      <trkpt lat="44.11254" lon="3.1403">
        <ele>480.39999389648</ele>
        <time>2020-10-03T16:54:15.000Z</time>
      </trkpt>
      <trkpt lat="44.1125" lon="3.14025">
        <ele>479</ele>
        <time>2020-10-03T16:54:16.000Z</time>
      </trkpt>
      <trkpt lat="44.11248" lon="3.14026">
        <ele>477.39999389648</ele>
        <time>2020-10-03T16:54:17.000Z</time>
      </trkpt>
      <trkpt lat="44.11247" lon="3.14029">
        <ele>475.79998779297</ele>
        <time>2020-10-03T16:54:18.000Z</time>
      </trkpt>
      <trkpt lat="44.11247" lon="3.14033">
        <ele>474.60000610352</ele>
        <time>2020-10-03T16:54:19.000Z</time>
      </trkpt>
      <trkpt lat="44.11248" lon="3.14037">
        <ele>473.60000610352</ele>
        <time>2020-10-03T16:54:20.000Z</time>
      </trkpt>
      <trkpt lat="44.11249" lon="3.1404">
        <ele>472.39999389648</ele>
        <time>2020-10-03T16:54:21.000Z</time>
      </trkpt>
      <trkpt lat="44.11249" lon="3.14041">
        <ele>471</ele>
        <time>2020-10-03T16:54:22.000Z</time>
      </trkpt>
      <trkpt lat="44.1125" lon="3.14041">
        <ele>469.79998779297</ele>
        <time>2020-10-03T16:54:23.000Z</time>
      </trkpt>
      <trkpt lat="44.11249" lon="3.14042">
        <ele>468.20001220703</ele>
        <time>2020-10-03T16:54:24.000Z</time>
      </trkpt>
      <trkpt lat="44.11249" lon="3.14042">
        <ele>466.60000610352</ele>
        <time>2020-10-03T16:54:25.000Z</time>
      </trkpt>
      <trkpt lat="44.11249" lon="3.14044">
        <ele>465</ele>
        <time>2020-10-03T16:54:27.000Z</time>
      </trkpt>
      <trkpt lat="44.1125" lon="3.14044">
        <ele>463.39999389648</ele>
        <time>2020-10-03T16:54:28.000Z</time>
      </trkpt>
      <trkpt lat="44.11251" lon="3.14046">
        <ele>462.39999389648</ele>
        <time>2020-10-03T16:54:30.000Z</time>
      </trkpt>
      <trkpt lat="44.11252" lon="3.14048">
        <ele>462</ele>
        <time>2020-10-03T16:54:32.000Z</time>
      </trkpt>
      <trkpt lat="44.11253" lon="3.14054">
        <ele>461.79998779297</ele>
        <time>2020-10-03T16:54:34.000Z</time>
      </trkpt>
      <trkpt lat="44.11251" lon="3.14062">
        <ele>461.60000610352</ele>
        <time>2020-10-03T16:54:38.000Z</time>
      </trkpt>
      <trkpt lat="44.11246" lon="3.14055">
        <ele>461.39999389648</ele>
        <time>2020-10-03T16:54:40.000Z</time>
      </trkpt>
      <trkpt lat="44.11239" lon="3.14046">
        <ele>460.79998779297</ele>
        <time>2020-10-03T16:54:42.000Z</time>
      </trkpt>
      <trkpt lat="44.11236" lon="3.14039">
        <ele>460.20001220703</ele>
        <time>2020-10-03T16:54:43.000Z</time>
      </trkpt>
      <trkpt lat="44.11227" lon="3.14023">
        <ele>459</ele>
        <time>2020-10-03T16:54:45.000Z</time>
      </trkpt>
      <trkpt lat="44.11221" lon="3.14015">
        <ele>458.39999389648</ele>
        <time>2020-10-03T16:54:46.000Z</time>
      </trkpt>
      <trkpt lat="44.11216" lon="3.14007">
        <ele>458</ele>
        <time>2020-10-03T16:54:47.000Z</time>
      </trkpt>
      <trkpt lat="44.11203" lon="3.13983">
        <ele>456.60000610352</ele>
        <time>2020-10-03T16:54:50.000Z</time>
      </trkpt>
      <trkpt lat="44.112" lon="3.13975">
        <ele>455.79998779297</ele>
        <time>2020-10-03T16:54:51.000Z</time>
      </trkpt>
      <trkpt lat="44.11196" lon="3.13967">
        <ele>455.20001220703</ele>
        <time>2020-10-03T16:54:52.000Z</time>
      </trkpt>
      <trkpt lat="44.11192" lon="3.13959">
        <ele>454.60000610352</ele>
        <time>2020-10-03T16:54:53.000Z</time>
      </trkpt>
      <trkpt lat="44.11187" lon="3.13952">
        <ele>453.60000610352</ele>
        <time>2020-10-03T16:54:54.000Z</time>
      </trkpt>
      <trkpt lat="44.11182" lon="3.13944">
        <ele>452.39999389648</ele>
        <time>2020-10-03T16:54:55.000Z</time>
      </trkpt>
      <trkpt lat="44.11168" lon="3.13928">
        <ele>448.60000610352</ele>
        <time>2020-10-03T16:54:57.000Z</time>
      </trkpt>
      <trkpt lat="44.1116" lon="3.13919">
        <ele>447.20001220703</ele>
        <time>2020-10-03T16:54:58.000Z</time>
      </trkpt>
      <trkpt lat="44.11151" lon="3.1391">
        <ele>446</ele>
        <time>2020-10-03T16:54:59.000Z</time>
      </trkpt>
      <trkpt lat="44.11131" lon="3.13894">
        <ele>444</ele>
        <time>2020-10-03T16:55:01.000Z</time>
      </trkpt>
      <trkpt lat="44.11121" lon="3.13887">
        <ele>443.20001220703</ele>
        <time>2020-10-03T16:55:02.000Z</time>
      </trkpt>
      <trkpt lat="44.11109" lon="3.1388">
        <ele>442</ele>
        <time>2020-10-03T16:55:03.000Z</time>
      </trkpt>
      <trkpt lat="44.11098" lon="3.13873">
        <ele>440.39999389648</ele>
        <time>2020-10-03T16:55:04.000Z</time>
      </trkpt>
      <trkpt lat="44.11089" lon="3.13868">
        <ele>439.20001220703</ele>
        <time>2020-10-03T16:55:05.000Z</time>
      </trkpt>
      <trkpt lat="44.11081" lon="3.13864">
        <ele>438</ele>
        <time>2020-10-03T16:55:06.000Z</time>
      </trkpt>
      <trkpt lat="44.11069" lon="3.13857">
        <ele>436.20001220703</ele>
        <time>2020-10-03T16:55:08.000Z</time>
      </trkpt>
      <trkpt lat="44.11065" lon="3.13856">
        <ele>435.39999389648</ele>
        <time>2020-10-03T16:55:09.000Z</time>
      </trkpt>
      <trkpt lat="44.11063" lon="3.13855">
        <ele>434.39999389648</ele>
        <time>2020-10-03T16:55:10.000Z</time>
      </trkpt>
      <trkpt lat="44.11061" lon="3.13855">
        <ele>433.39999389648</ele>
        <time>2020-10-03T16:55:11.000Z</time>
      </trkpt>
      <trkpt lat="44.1106" lon="3.13855">
        <ele>432</ele>
        <time>2020-10-03T16:55:12.000Z</time>
      </trkpt>
      <trkpt lat="44.11059" lon="3.13855">
        <ele>431</ele>
        <time>2020-10-03T16:55:13.000Z</time>
      </trkpt>
      <trkpt lat="44.1106" lon="3.13856">
        <ele>429.79998779297</ele>
        <time>2020-10-03T16:55:14.000Z</time>
      </trkpt>
    </trkseg>
  </trk>
</gpx>